Time;durP1;ratioP1;P1;durP2;ratioP2;P2;SDS_P1;SDS_P2;PMS_P1;PMS_P2;Temp;Humidity;BMP_temperature;BMP_pressure;BME280_temperature;BME280_humidity;BME280_pressure;Samples;Min_cycle;Max_cycle;Signal;HPM_P1;HPM_P2
2022/05/10 00:00:40;;;;;;;24.50;18.10;;;;;;;;;;5095776;28;20466;-69
2022/05/10 00:03:08;;;;;;;20.70;18.60;;;;;;;;;;5095567;28;20805;-69
2022/05/10 00:05:36;;;;;;;18.97;16.97;;;;;;;;;;5095347;28;20487;-69
2022/05/10 00:08:05;;;;;;;16.97;15.10;;;;;;;;;;5095439;28;20454;-69
2022/05/10 00:10:32;;;;;;;21.17;16.77;;;;;;;;;;5095558;28;20830;-69
2022/05/10 00:12:59;;;;;;;20.37;17.57;;;;;;;;;;5095392;28;20458;-69
2022/05/10 00:15:28;;;;;;;20.03;17.93;;;;;;;;;;5094707;28;20447;-70
2022/05/10 00:17:55;;;;;;;20.50;18.23;;;;;;;;;;5095266;28;20446;-70
2022/05/10 00:20:25;;;;;;;20.43;17.17;;;;;;;;;;5095065;28;20846;-70
2022/05/10 00:22:52;;;;;;;20.00;17.40;;;;;;;;;;5094849;28;20447;-70
2022/05/10 00:25:20;;;;;;;18.23;16.07;;;;;;;;;;5094861;28;20497;-70
2022/05/10 00:27:47;;;;;;;23.37;17.53;;;;;;;;;;5095018;28;20462;-70
2022/05/10 00:30:14;;;;;;;19.90;17.70;;;;;;;;;;5095402;28;20487;-70
2022/05/10 00:32:43;;;;;;;24.07;16.40;;;;;;;;;;5095156;28;20955;-70
2022/05/10 00:35:15;;;;;;;19.33;17.20;;;;;;;;;;5094787;28;20450;-70
2022/05/10 00:37:42;;;;;;;24.47;17.73;;;;;;;;;;5094962;28;20944;-70
2022/05/10 00:40:10;;;;;;;18.07;16.10;;;;;;;;;;5094778;28;20889;-70
2022/05/10 00:42:39;;;;;;;18.27;16.17;;;;;;;;;;5094889;28;20454;-69
2022/05/10 00:45:08;;;;;;;17.87;16.00;;;;;;;;;;5094425;28;20478;-70
2022/05/10 00:47:39;;;;;;;23.30;17.50;;;;;;;;;;5094867;28;20447;-69
2022/05/10 00:50:10;;;;;;;19.13;16.90;;;;;;;;;;5095157;28;20482;-69
2022/05/10 00:52:43;;;;;;;20.70;17.57;;;;;;;;;;5094604;28;20451;-70
2022/05/10 00:55:15;;;;;;;22.53;19.67;;;;;;;;;;5094458;28;20451;-70
2022/05/10 00:57:44;;;;;;;26.20;18.47;;;;;;;;;;5094557;28;20592;-69
2022/05/10 01:00:12;;;;;;;19.07;16.00;;;;;;;;;;5094420;28;21089;-69
2022/05/10 01:02:44;;;;;;;20.00;16.60;;;;;;;;;;5094421;28;20447;-69
2022/05/10 01:05:15;;;;;;;19.97;16.80;;;;;;;;;;5094154;28;20453;-69
2022/05/10 01:07:49;;;;;;;21.40;16.07;;;;;;;;;;5094319;28;20453;-69
2022/05/10 01:10:19;;;;;;;29.23;19.70;;;;;;;;;;5094252;28;20478;-69
2022/05/10 01:12:49;;;;;;;25.83;19.40;;;;;;;;;;5094266;28;20462;-69
2022/05/10 01:15:17;;;;;;;21.70;18.47;;;;;;;;;;5093502;28;20944;-70
2022/05/10 01:17:44;;;;;;;18.33;16.37;;;;;;;;;;5094221;28;20456;-70
2022/05/10 01:20:16;;;;;;;22.90;18.03;;;;;;;;;;5094143;28;20470;-70
2022/05/10 01:22:53;;;;;;;19.60;17.53;;;;;;;;;;5094210;28;20932;-69
2022/05/10 01:25:27;;;;;;;20.97;17.77;;;;;;;;;;5093844;28;20935;-69
2022/05/10 01:28:09;;;;;;;19.57;17.50;;;;;;;;;;5093951;28;20450;-69
2022/05/10 01:30:37;;;;;;;18.80;16.00;;;;;;;;;;5093946;28;20473;-69
2022/05/10 01:35:57;;;;;;;19.40;15.40;;;;;;;;;;5093843;28;20930;-69
2022/05/10 01:38:29;;;;;;;29.30;15.57;;;;;;;;;;5093245;28;20458;-69
2022/05/10 01:40:59;;;;;;;16.53;14.13;;;;;;;;;;5093845;28;20837;-70
2022/05/10 01:43:31;;;;;;;17.70;15.90;;;;;;;;;;5094032;28;20451;-69
2022/05/10 01:45:59;;;;;;;17.80;13.30;;;;;;;;;;5093497;28;20902;-69
2022/05/10 01:48:26;;;;;;;13.63;12.17;;;;;;;;;;5093729;28;20458;-69
2022/05/10 01:50:56;;;;;;;21.57;12.90;;;;;;;;;;5093755;28;20486;-69
2022/05/10 01:53:28;;;;;;;16.70;14.60;;;;;;;;;;5094061;28;20836;-69
2022/05/10 01:56:01;;;;;;;17.47;13.57;;;;;;;;;;5093487;28;20442;-69
2022/05/10 01:58:30;;;;;;;17.20;12.93;;;;;;;;;;5093576;28;20454;-69
2022/05/10 02:00:59;;;;;;;15.27;12.67;;;;;;;;;;5093258;28;20979;-69
2022/05/10 02:03:29;;;;;;;17.27;14.37;;;;;;;;;;5093297;28;20466;-69
2022/05/10 02:05:59;;;;;;;15.60;13.83;;;;;;;;;;5093298;28;20486;-69
2022/05/10 02:08:30;;;;;;;17.20;14.47;;;;;;;;;;5093365;28;20455;-69
2022/05/10 02:10:59;;;;;;;17.83;14.30;;;;;;;;;;5093538;28;20467;-69
2022/05/10 02:13:28;;;;;;;14.40;12.90;;;;;;;;;;5093192;28;20462;-69
2022/05/10 02:15:59;;;;;;;16.43;12.90;;;;;;;;;;5092638;28;20446;-70
2022/05/10 02:18:29;;;;;;;14.23;12.73;;;;;;;;;;5093276;28;20447;-69
2022/05/10 02:20:57;;;;;;;20.10;13.17;;;;;;;;;;5093403;28;20467;-69
2022/05/10 02:23:26;;;;;;;17.53;12.83;;;;;;;;;;5093013;28;20462;-69
2022/05/10 02:25:56;;;;;;;16.77;12.90;;;;;;;;;;5093050;28;20482;-69
2022/05/10 02:28:25;;;;;;;16.03;13.23;;;;;;;;;;5092994;28;21078;-69
2022/05/10 02:30:54;;;;;;;18.33;13.37;;;;;;;;;;5093031;28;20470;-69
2022/05/10 02:33:22;;;;;;;18.00;15.20;;;;;;;;;;5092999;28;20447;-69
2022/05/10 02:35:54;;;;;;;20.27;13.87;;;;;;;;;;5092889;28;20939;-69
2022/05/10 02:38:22;;;;;;;17.80;14.00;;;;;;;;;;5093031;28;20451;-69
2022/05/10 02:40:51;;;;;;;19.33;13.90;;;;;;;;;;5092898;28;20479;-69
2022/05/10 02:43:20;;;;;;;16.60;13.30;;;;;;;;;;5092881;28;20545;-69
2022/05/10 02:45:47;;;;;;;16.80;13.07;;;;;;;;;;5092803;28;20446;-69
2022/05/10 02:48:15;;;;;;;18.27;13.63;;;;;;;;;;5092832;28;20478;-69
2022/05/10 02:50:44;;;;;;;16.40;13.07;;;;;;;;;;5094668;28;20466;-69
2022/05/10 02:53:11;;;;;;;14.40;12.40;;;;;;;;;;5096748;28;20454;-70
2022/05/10 02:55:40;;;;;;;17.03;13.50;;;;;;;;;;5096796;28;20451;-70
2022/05/10 02:58:09;;;;;;;18.83;14.30;;;;;;;;;;5096906;28;20462;-70
2022/05/10 03:00:36;;;;;;;20.10;13.57;;;;;;;;;;5097008;28;20545;-69
2022/05/10 03:03:08;;;;;;;18.63;13.40;;;;;;;;;;5096742;28;20595;-69
2022/05/10 03:05:35;;;;;;;25.70;14.83;;;;;;;;;;5096567;28;20449;-69
2022/05/10 03:08:04;;;;;;;16.17;13.60;;;;;;;;;;5096531;28;20482;-69
2022/05/10 03:10:32;;;;;;;25.23;16.83;;;;;;;;;;5096631;28;20476;-69
2022/05/10 03:12:59;;;;;;;18.00;14.80;;;;;;;;;;5096586;28;20457;-69
2022/05/10 03:15:26;;;;;;;17.67;15.00;;;;;;;;;;5095929;28;20473;-70
2022/05/10 03:17:54;;;;;;;19.03;15.53;;;;;;;;;;5096457;28;20443;-69
2022/05/10 03:20:21;;;;;;;17.40;15.50;;;;;;;;;;5096365;28;20839;-69
2022/05/10 03:22:48;;;;;;;16.33;13.53;;;;;;;;;;5096491;28;20465;-69
2022/05/10 03:25:16;;;;;;;18.00;15.40;;;;;;;;;;5096161;28;20504;-70
2022/05/10 03:27:45;;;;;;;18.30;15.43;;;;;;;;;;5096235;28;20539;-69
2022/05/10 03:30:13;;;;;;;18.90;14.70;;;;;;;;;;5096193;28;20920;-69
2022/05/10 03:32:40;;;;;;;17.17;14.83;;;;;;;;;;5096194;28;20820;-69
2022/05/10 03:35:08;;;;;;;17.87;14.23;;;;;;;;;;5095883;28;20450;-69
2022/05/10 03:37:35;;;;;;;17.67;14.23;;;;;;;;;;5096147;28;20974;-69
2022/05/10 03:40:02;;;;;;;18.43;15.37;;;;;;;;;;5096011;28;20466;-69
2022/05/10 03:42:31;;;;;;;19.27;13.80;;;;;;;;;;5096125;28;20462;-69
2022/05/10 03:44:58;;;;;;;16.07;12.80;;;;;;;;;;5095669;28;20454;-69
2022/05/10 03:47:26;;;;;;;19.10;13.83;;;;;;;;;;5095669;28;20999;-69
2022/05/10 03:49:53;;;;;;;17.63;13.50;;;;;;;;;;5095916;28;20478;-69
2022/05/10 03:52:21;;;;;;;18.27;13.77;;;;;;;;;;5095913;28;21008;-69
2022/05/10 03:54:48;;;;;;;18.20;12.30;;;;;;;;;;5095582;28;20450;-69
2022/05/10 03:57:15;;;;;;;15.30;13.13;;;;;;;;;;5095551;28;20455;-69
2022/05/10 03:59:43;;;;;;;16.07;12.07;;;;;;;;;;5095405;28;20470;-69
2022/05/10 04:02:11;;;;;;;17.70;13.00;;;;;;;;;;5094951;28;20832;-69
2022/05/10 04:04:39;;;;;;;16.83;13.40;;;;;;;;;;5095451;28;20454;-70
2022/05/10 04:07:06;;;;;;;19.47;13.87;;;;;;;;;;5095249;28;21022;-69
2022/05/10 04:09:34;;;;;;;19.87;14.27;;;;;;;;;;5095458;28;20512;-69
2022/05/10 04:12:01;;;;;;;15.57;12.27;;;;;;;;;;5095310;28;20969;-69
2022/05/10 04:14:29;;;;;;;16.60;13.03;;;;;;;;;;5095162;28;20454;-69
2022/05/10 04:16:57;;;;;;;14.00;12.53;;;;;;;;;;5094657;28;20461;-69
2022/05/10 04:19:24;;;;;;;17.47;12.80;;;;;;;;;;5095366;28;20490;-69
2022/05/10 04:21:51;;;;;;;15.10;11.77;;;;;;;;;;5095229;28;20466;-69
2022/05/10 04:24:18;;;;;;;12.80;11.30;;;;;;;;;;5094938;28;20470;-69
2022/05/10 04:26:46;;;;;;;12.23;10.57;;;;;;;;;;5095101;28;20482;-69
2022/05/10 04:29:13;;;;;;;13.70;10.47;;;;;;;;;;5095034;28;20852;-69
2022/05/10 04:31:40;;;;;;;11.40;10.20;;;;;;;;;;5094982;28;20446;-72
2022/05/10 04:34:08;;;;;;;10.87;9.20;;;;;;;;;;5094817;28;20966;-72
2022/05/10 04:36:36;;;;;;;9.13;8.20;;;;;;;;;;5095015;28;20439;-73
2022/05/10 04:39:03;;;;;;;8.70;7.87;;;;;;;;;;5095025;28;20466;-72
2022/05/10 04:41:30;;;;;;;9.03;8.00;;;;;;;;;;5095036;28;20882;-72
2022/05/10 04:43:59;;;;;;;10.97;9.90;;;;;;;;;;5094486;28;20451;-72
2022/05/10 04:46:26;;;;;;;11.90;8.30;;;;;;;;;;5093008;28;20458;-73
2022/05/10 04:48:53;;;;;;;11.57;9.23;;;;;;;;;;5093415;28;20478;-72
2022/05/10 04:51:22;;;;;;;10.17;9.17;;;;;;;;;;5094309;28;20473;-72
2022/05/10 04:53:49;;;;;;;9.00;8.20;;;;;;;;;;5094211;28;20446;-73
2022/05/10 04:56:16;;;;;;;8.87;8.07;;;;;;;;;;5094325;28;20872;-73
2022/05/10 04:58:43;;;;;;;7.60;6.90;;;;;;;;;;5094413;28;20496;-73
2022/05/10 05:01:13;;;;;;;12.10;7.67;;;;;;;;;;5094455;28;20462;-73
2022/05/10 05:03:43;;;;;;;17.50;8.90;;;;;;;;;;5094146;28;20454;-72
2022/05/10 05:06:10;;;;;;;10.60;9.27;;;;;;;;;;5094272;28;20517;-72
2022/05/10 05:08:38;;;;;;;10.90;7.73;;;;;;;;;;5094093;28;20891;-72
2022/05/10 05:11:06;;;;;;;12.10;6.97;;;;;;;;;;5094253;28;20451;-72
2022/05/10 05:13:33;;;;;;;9.87;7.73;;;;;;;;;;5079723;28;20483;-73
2022/05/10 05:16:00;;;;;;;12.00;8.43;;;;;;;;;;5071851;28;20995;-73
2022/05/10 05:18:27;;;;;;;8.30;7.57;;;;;;;;;;5072454;28;20440;-73
2022/05/10 05:20:54;;;;;;;8.30;7.50;;;;;;;;;;5072154;28;20471;-73
2022/05/10 05:23:23;;;;;;;9.50;8.13;;;;;;;;;;5072134;28;20474;-73
2022/05/10 05:25:53;;;;;;;7.27;6.70;;;;;;;;;;5072058;28;20462;-73
2022/05/10 05:28:20;;;;;;;8.47;6.90;;;;;;;;;;5071739;28;20902;-73
2022/05/10 05:30:48;;;;;;;7.63;6.87;;;;;;;;;;5071805;28;20479;-73
2022/05/10 05:33:15;;;;;;;7.43;6.73;;;;;;;;;;5071907;28;20462;-73
2022/05/10 05:35:43;;;;;;;8.33;7.20;;;;;;;;;;5071785;28;20972;-73
2022/05/10 05:38:10;;;;;;;9.50;6.50;;;;;;;;;;5071822;28;20956;-73
2022/05/10 05:40:38;;;;;;;6.43;5.73;;;;;;;;;;5071908;28;20483;-73
2022/05/10 05:43:07;;;;;;;9.77;7.70;;;;;;;;;;5071609;28;20452;-73
2022/05/10 05:45:34;;;;;;;8.23;6.93;;;;;;;;;;5071787;28;20459;-73
2022/05/10 05:48:01;;;;;;;8.27;6.50;;;;;;;;;;5071632;28;20519;-73
2022/05/10 05:50:30;;;;;;;7.17;6.30;;;;;;;;;;5072141;28;20817;-73
2022/05/10 05:52:57;;;;;;;10.57;6.60;;;;;;;;;;5071934;28;20461;-73
2022/05/10 05:55:24;;;;;;;7.10;5.90;;;;;;;;;;5071546;28;20451;-73
2022/05/10 05:57:51;;;;;;;6.30;5.70;;;;;;;;;;5071746;28;20520;-73
2022/05/10 06:00:22;;;;;;;8.83;5.60;;;;;;;;;;5071528;28;20476;-73
2022/05/10 06:02:50;;;;;;;5.70;4.93;;;;;;;;;;5071470;28;20460;-73
2022/05/10 06:05:17;;;;;;;8.07;6.43;;;;;;;;;;5071569;28;20458;-73
2022/05/10 06:07:44;;;;;;;5.50;5.10;;;;;;;;;;5071710;28;20483;-73
2022/05/10 06:10:12;;;;;;;6.37;5.70;;;;;;;;;;5071775;28;20472;-73
2022/05/10 06:12:40;;;;;;;6.40;5.90;;;;;;;;;;5071397;28;20459;-73
2022/05/10 06:15:09;;;;;;;8.83;8.03;;;;;;;;;;5071045;28;20454;-73
2022/05/10 06:17:38;;;;;;;7.30;5.97;;;;;;;;;;5071493;28;20491;-73
2022/05/10 06:20:08;;;;;;;7.67;7.07;;;;;;;;;;5071315;28;20482;-73
2022/05/10 06:22:35;;;;;;;8.80;6.17;;;;;;;;;;5071809;28;20487;-73
2022/05/10 06:25:02;;;;;;;6.20;5.23;;;;;;;;;;5070906;28;20463;-73
2022/05/10 06:27:30;;;;;;;9.10;6.00;;;;;;;;;;5071530;28;20857;-73
2022/05/10 06:29:57;;;;;;;8.10;6.07;;;;;;;;;;5071450;28;20483;-73
2022/05/10 06:32:25;;;;;;;5.87;5.37;;;;;;;;;;5071584;28;20444;-73
2022/05/10 06:34:53;;;;;;;6.53;5.70;;;;;;;;;;5071488;28;20458;-73
2022/05/10 06:40:07;;;;;;;7.70;4.83;;;;;;;;;;5071269;28;20443;-73
2022/05/10 06:42:34;;;;;;;7.63;6.80;;;;;;;;;;5071199;28;20839;-73
2022/05/10 06:45:02;;;;;;;5.43;5.03;;;;;;;;;;5071022;28;20447;-73
2022/05/10 06:47:29;;;;;;;6.70;5.47;;;;;;;;;;5071322;28;20510;-73
2022/05/10 06:49:57;;;;;;;30.23;6.43;;;;;;;;;;5071234;28;20479;-73
2022/05/10 06:52:24;;;;;;;6.00;4.53;;;;;;;;;;5071530;28;20455;-73
2022/05/10 06:54:51;;;;;;;4.67;4.17;;;;;;;;;;5070943;28;20455;-73
2022/05/10 06:57:18;;;;;;;4.60;4.13;;;;;;;;;;5071066;28;20472;-73
2022/05/10 06:59:45;;;;;;;5.20;4.33;;;;;;;;;;5071397;28;20471;-73
2022/05/10 07:02:12;;;;;;;4.20;3.80;;;;;;;;;;5071194;28;20452;-73
2022/05/10 07:04:40;;;;;;;4.80;4.40;;;;;;;;;;5070948;28;20455;-73
2022/05/10 07:07:08;;;;;;;4.33;3.93;;;;;;;;;;5070869;28;20509;-73
2022/05/10 07:09:35;;;;;;;5.83;3.50;;;;;;;;;;5071196;28;20550;-73
2022/05/10 07:12:02;;;;;;;4.70;4.23;;;;;;;;;;5070878;28;20827;-73
2022/05/10 07:14:29;;;;;;;8.70;4.00;;;;;;;;;;5070954;28;21005;-73
2022/05/10 07:16:56;;;;;;;4.93;4.53;;;;;;;;;;5071090;28;20456;-73
2022/05/10 07:19:24;;;;;;;6.30;4.83;;;;;;;;;;5071208;28;20976;-73
2022/05/10 07:21:51;;;;;;;7.00;6.40;;;;;;;;;;5070853;28;20452;-73
2022/05/10 07:24:20;;;;;;;4.60;3.90;;;;;;;;;;5070583;28;20467;-73
2022/05/10 07:26:47;;;;;;;4.90;3.60;;;;;;;;;;5070875;28;20448;-73
2022/05/10 07:29:14;;;;;;;4.17;3.87;;;;;;;;;;5070789;28;20872;-73
2022/05/10 07:31:41;;;;;;;4.53;3.50;;;;;;;;;;5070934;28;20460;-73
2022/05/10 07:34:09;;;;;;;3.93;3.50;;;;;;;;;;5070473;28;20443;-73
2022/05/10 07:36:36;;;;;;;5.27;4.87;;;;;;;;;;5072294;28;20486;-73
2022/05/10 07:39:04;;;;;;;6.03;4.70;;;;;;;;;;5074374;28;20468;-73
2022/05/10 07:41:33;;;;;;;7.37;4.70;;;;;;;;;;5074419;28;20455;-73
2022/05/10 07:44:00;;;;;;;5.17;4.30;;;;;;;;;;5073930;28;20458;-74
2022/05/10 07:46:27;;;;;;;4.53;4.17;;;;;;;;;;5074392;28;20447;-73
2022/05/10 07:48:55;;;;;;;4.57;4.17;;;;;;;;;;5073957;28;21009;-73
2022/05/10 07:51:22;;;;;;;4.70;4.20;;;;;;;;;;5075612;28;20451;-73
2022/05/10 07:53:49;;;;;;;4.53;4.13;;;;;;;;;;5075284;28;20455;-73
2022/05/10 07:56:16;;;;;;;5.77;4.10;;;;;;;;;;5075477;28;20456;-74
2022/05/10 07:58:45;;;;;;;8.20;4.50;;;;;;;;;;5075561;28;20443;-73
2022/05/10 08:01:12;;;;;;;5.50;3.70;;;;;;;;;;5075420;28;20452;-73
2022/05/10 08:03:39;;;;;;;8.97;4.47;;;;;;;;;;5075257;28;20956;-73
2022/05/10 08:06:06;;;;;;;5.00;4.10;;;;;;;;;;5075564;28;20458;-73
2022/05/10 08:08:34;;;;;;;5.90;4.50;;;;;;;;;;5075079;28;20483;-73
2022/05/10 08:11:01;;;;;;;13.40;4.67;;;;;;;;;;5075101;28;20476;-73
2022/05/10 08:13:29;;;;;;;4.90;4.50;;;;;;;;;;5075155;28;20444;-73
2022/05/10 08:15:58;;;;;;;7.17;4.80;;;;;;;;;;5081366;28;20455;-73
2022/05/10 08:18:25;;;;;;;4.30;3.90;;;;;;;;;;5094108;28;20457;-73
2022/05/10 08:20:54;;;;;;;5.17;4.77;;;;;;;;;;5093926;28;20506;-73
2022/05/10 08:23:22;;;;;;;7.13;4.70;;;;;;;;;;5093991;28;20876;-73
2022/05/10 08:25:49;;;;;;;4.53;4.13;;;;;;;;;;5093857;28;20451;-73
2022/05/10 08:28:16;;;;;;;6.10;4.87;;;;;;;;;;5093627;28;20568;-73
2022/05/10 08:30:46;;;;;;;5.63;3.70;;;;;;;;;;5093388;28;20483;-73
2022/05/10 08:33:18;;;;;;;5.80;3.97;;;;;;;;;;5093627;28;20583;-74
2022/05/10 08:35:45;;;;;;;4.63;4.17;;;;;;;;;;5093558;28;20457;-73
2022/05/10 08:38:12;;;;;;;5.60;4.20;;;;;;;;;;5092952;28;20453;-74
2022/05/10 08:40:42;;;;;;;4.80;3.90;;;;;;;;;;5093460;28;20471;-74
2022/05/10 08:43:13;;;;;;;4.80;3.77;;;;;;;;;;5093170;28;20828;-74
2022/05/10 08:45:41;;;;;;;5.83;4.07;;;;;;;;;;5093347;28;20822;-74
2022/05/10 08:48:09;;;;;;;4.87;4.07;;;;;;;;;;5094071;28;20853;-74
2022/05/10 08:50:39;;;;;;;4.87;3.30;;;;;;;;;;5094923;28;21010;-74
2022/05/10 08:53:07;;;;;;;5.23;3.90;;;;;;;;;;5094424;28;20557;-74
2022/05/10 08:55:38;;;;;;;4.07;3.77;;;;;;;;;;5094341;28;20451;-74
2022/05/10 08:58:08;;;;;;;7.87;4.47;;;;;;;;;;5094610;28;20449;-74
2022/05/10 09:00:38;;;;;;;4.80;4.07;;;;;;;;;;5094589;28;20474;-74
2022/05/10 09:03:21;;;;;;;9.23;3.50;;;;;;;;;;5094611;28;20443;-74
2022/05/10 09:05:50;;;;;;;5.33;4.13;;;;;;;;;;5094493;28;20446;-74
2022/05/10 09:08:22;;;;;;;4.60;4.20;;;;;;;;;;5094233;28;20505;-74
2022/05/10 09:10:51;;;;;;;4.77;4.10;;;;;;;;;;5094498;28;20847;-74
2022/05/10 09:13:20;;;;;;;5.43;4.03;;;;;;;;;;5094192;28;20454;-74
2022/05/10 09:15:49;;;;;;;4.80;4.07;;;;;;;;;;5093741;28;20466;-74
2022/05/10 09:18:27;;;;;;;4.63;4.23;;;;;;;;;;5094271;28;20438;-74
2022/05/10 09:21:01;;;;;;;4.90;4.17;;;;;;;;;;5094297;28;20482;-74
2022/05/10 09:23:31;;;;;;;5.30;4.70;;;;;;;;;;5093869;28;20470;-73
2022/05/10 09:25:58;;;;;;;4.73;4.07;;;;;;;;;;5094009;28;20457;-74
2022/05/10 09:28:28;;;;;;;7.87;4.20;;;;;;;;;;5094035;28;20851;-73
2022/05/10 09:36:27;;;;;;;6.67;3.70;;;;;;;;;;5094117;28;20418;-74
2022/05/10 09:39:00;;;;;;;7.20;4.60;;;;;;;;;;5093777;28;20454;-74
2022/05/10 09:41:28;;;;;;;4.60;3.50;;;;;;;;;;5093858;28;20450;-74
2022/05/10 09:43:55;;;;;;;5.10;4.57;;;;;;;;;;5093617;28;20974;-74
2022/05/10 09:46:24;;;;;;;5.20;3.80;;;;;;;;;;5093757;28;20827;-74
2022/05/10 09:48:52;;;;;;;4.80;4.20;;;;;;;;;;5093535;28;20482;-74
2022/05/10 09:51:21;;;;;;;4.77;4.33;;;;;;;;;;5093588;28;20453;-74
2022/05/10 09:53:50;;;;;;;4.83;3.90;;;;;;;;;;5093395;28;20462;-74
2022/05/10 09:56:28;;;;;;;4.30;3.90;;;;;;;;;;5093431;28;20455;-74
2022/05/10 09:58:58;;;;;;;5.77;3.90;;;;;;;;;;5093133;28;20447;-73
2022/05/10 10:01:37;;;;;;;4.80;4.00;;;;;;;;;;5093647;28;20865;-74
2022/05/10 10:04:14;;;;;;;5.60;4.43;;;;;;;;;;5093092;28;20454;-74
2022/05/10 10:06:41;;;;;;;4.13;3.60;;;;;;;;;;5093473;28;20455;-73
2022/05/10 10:09:09;;;;;;;4.07;3.67;;;;;;;;;;5093328;28;20490;-73
2022/05/10 10:11:39;;;;;;;4.37;4.00;;;;;;;;;;5093397;28;20486;-73
2022/05/10 10:14:08;;;;;;;5.37;3.90;;;;;;;;;;5093109;28;20454;-73
2022/05/10 10:16:36;;;;;;;5.67;4.37;;;;;;;;;;5093080;28;20461;-73
2022/05/10 10:19:07;;;;;;;4.53;4.13;;;;;;;;;;5093347;28;20472;-73
2022/05/10 10:21:39;;;;;;;5.37;3.93;;;;;;;;;;5093326;28;20442;-73
2022/05/10 10:24:07;;;;;;;4.57;4.17;;;;;;;;;;5093004;28;20463;-73
2022/05/10 10:26:40;;;;;;;5.93;4.63;;;;;;;;;;5093219;28;20451;-73
2022/05/10 10:29:16;;;;;;;4.30;4.00;;;;;;;;;;5092903;28;20491;-73
2022/05/10 10:31:45;;;;;;;5.50;4.40;;;;;;;;;;5093152;28;20943;-74
2022/05/10 10:34:14;;;;;;;5.20;4.30;;;;;;;;;;5092865;28;20452;-74
2022/05/10 10:36:45;;;;;;;5.80;4.30;;;;;;;;;;5093117;28;20477;-74
2022/05/10 10:39:14;;;;;;;20.50;7.37;;;;;;;;;;5093101;28;20478;-74
2022/05/10 10:41:47;;;;;;;5.30;3.10;;;;;;;;;;5092879;28;20459;-74
2022/05/10 10:44:18;;;;;;;3.90;3.40;;;;;;;;;;5092830;28;20477;-74
2022/05/10 10:46:48;;;;;;;4.13;3.83;;;;;;;;;;5093056;28;20451;-74
2022/05/10 10:49:16;;;;;;;4.13;3.83;;;;;;;;;;5092839;28;20486;-74
2022/05/10 10:51:43;;;;;;;7.70;4.17;;;;;;;;;;5092877;28;20458;-74
2022/05/10 10:54:13;;;;;;;10.50;3.90;;;;;;;;;;5092600;28;20940;-74
2022/05/10 10:56:50;;;;;;;5.20;4.37;;;;;;;;;;5093030;28;20450;-74
2022/05/10 10:59:38;;;;;;;6.47;5.87;;;;;;;;;;5092864;28;20462;-74
2022/05/10 11:02:16;;;;;;;8.60;3.47;;;;;;;;;;5088143;28;20462;-74
2022/05/10 11:04:51;;;;;;;4.27;3.97;;;;;;;;;;5092852;28;20503;-74
2022/05/10 11:07:21;;;;;;;5.87;3.50;;;;;;;;;;5092683;28;20450;-74
2022/05/10 11:09:51;;;;;;;4.73;3.43;;;;;;;;;;5092750;28;20486;-74
2022/05/10 11:12:28;;;;;;;4.77;3.57;;;;;;;;;;5095400;28;20454;-74
2022/05/10 11:15:08;;;;;;;4.77;3.83;;;;;;;;;;5096504;28;20441;-74
2022/05/10 11:17:38;;;;;;;4.80;3.77;;;;;;;;;;5096636;28;20453;-74
2022/05/10 11:20:13;;;;;;;6.50;3.80;;;;;;;;;;5096444;28;20471;-74
2022/05/10 11:22:41;;;;;;;5.10;3.20;;;;;;;;;;5096570;28;20966;-74
2022/05/10 11:25:26;;;;;;;8.57;4.50;;;;;;;;;;5096156;28;20454;-74
2022/05/10 11:28:11;;;;;;;3.30;3.00;;;;;;;;;;5096421;28;20818;-74
2022/05/10 11:30:42;;;;;;;7.23;3.90;;;;;;;;;;5096488;28;20832;-74
2022/05/10 11:33:16;;;;;;;4.33;3.93;;;;;;;;;;5096289;28;20822;-74
2022/05/10 11:36:02;;;;;;;3.70;3.40;;;;;;;;;;5096074;28;20454;-74
2022/05/10 11:38:45;;;;;;;5.83;3.83;;;;;;;;;;5096166;28;20540;-74
2022/05/10 11:41:18;;;;;;;4.93;3.80;;;;;;;;;;5084124;28;20498;-74
2022/05/10 11:43:57;;;;;;;5.17;3.87;;;;;;;;;;5095947;28;20450;-74
2022/05/10 11:46:48;;;;;;;4.13;3.83;;;;;;;;;;5095889;28;20993;-74
2022/05/10 11:49:27;;;;;;;3.93;3.63;;;;;;;;;;5096003;28;20497;-74
2022/05/10 11:52:06;;;;;;;3.70;3.20;;;;;;;;;;5095921;28;20943;-74
2022/05/10 11:54:57;;;;;;;7.40;3.33;;;;;;;;;;5095738;28;20455;-74
2022/05/10 11:57:25;;;;;;;4.40;3.80;;;;;;;;;;5080638;28;20463;-74
2022/05/10 11:59:54;;;;;;;4.83;4.00;;;;;;;;;;5095808;28;20498;-74
2022/05/10 12:02:40;;;;;;;4.70;4.10;;;;;;;;;;5091377;28;20455;-74
2022/05/10 12:05:24;;;;;;;4.97;4.07;;;;;;;;;;5094881;28;20454;-74
2022/05/10 12:07:51;;;;;;;4.97;4.03;;;;;;;;;;5095446;28;20898;-74
2022/05/10 12:10:48;;;;;;;5.70;3.37;;;;;;;;;;5095174;28;20502;-74
2022/05/10 12:22:03;;;;;;;5.07;4.10;;;;;;;;;;5074551;28;20959;-74
2022/05/10 12:24:32;;;;;;;10.33;4.00;;;;;;;;;;5074858;28;20467;-74
2022/05/10 12:27:00;;;;;;;4.37;3.20;;;;;;;;;;5074572;28;20448;-74
2022/05/10 12:29:35;;;;;;;5.37;4.70;;;;;;;;;;5074737;28;20514;-74
2022/05/10 12:32:04;;;;;;;6.23;4.50;;;;;;;;;;5074935;28;20447;-73
2022/05/10 12:34:42;;;;;;;4.53;4.17;;;;;;;;;;5074711;28;20451;-73
2022/05/10 12:37:28;;;;;;;4.60;4.20;;;;;;;;;;5074855;28;20482;-73
2022/05/10 12:39:56;;;;;;;8.60;4.00;;;;;;;;;;5074714;28;20467;-73
2022/05/10 12:42:28;;;;;;;4.50;4.10;;;;;;;;;;5074895;28;20455;-73
2022/05/10 12:45:02;;;;;;;4.70;4.17;;;;;;;;;;5074432;28;20950;-73
2022/05/10 12:47:44;;;;;;;6.70;4.13;;;;;;;;;;5074600;28;20456;-73
2022/05/10 12:50:21;;;;;;;4.97;3.70;;;;;;;;;;5073273;28;20491;-73
2022/05/10 12:52:48;;;;;;;4.90;3.60;;;;;;;;;;5074434;28;20455;-73
2022/05/10 12:55:18;;;;;;;5.23;4.33;;;;;;;;;;5074019;28;20456;-73
2022/05/10 12:57:48;;;;;;;4.73;4.10;;;;;;;;;;5074612;28;20448;-73
2022/05/10 13:00:19;;;;;;;4.07;3.67;;;;;;;;;;5074747;28;20829;-73
2022/05/10 13:02:50;;;;;;;6.13;4.63;;;;;;;;;;5074452;28;20448;-73
2022/05/10 13:05:20;;;;;;;8.67;5.10;;;;;;;;;;5074142;28;20904;-73
2022/05/10 13:08:05;;;;;;;15.73;4.93;;;;;;;;;;5074287;28;20447;-73
2022/05/10 13:10:35;;;;;;;46.10;6.73;;;;;;;;;;5073967;28;20498;-73
2022/05/10 13:13:03;;;;;;;6.93;4.73;;;;;;;;;;5074072;28;20807;-73
2022/05/10 13:15:31;;;;;;;4.17;3.87;;;;;;;;;;5073665;28;20459;-73
2022/05/10 13:18:00;;;;;;;4.20;3.80;;;;;;;;;;5073933;28;20452;-73
2022/05/10 13:20:32;;;;;;;8.00;3.43;;;;;;;;;;5074091;28;20472;-73
2022/05/10 13:23:00;;;;;;;4.40;3.50;;;;;;;;;;5073420;28;20474;-73
2022/05/10 13:25:28;;;;;;;4.93;3.90;;;;;;;;;;5073199;28;20448;-73
2022/05/10 13:28:08;;;;;;;5.10;3.90;;;;;;;;;;5073459;28;20527;-73
2022/05/10 13:30:35;;;;;;;4.40;4.00;;;;;;;;;;5073501;28;20545;-73
2022/05/10 13:33:03;;;;;;;6.10;3.70;;;;;;;;;;5073386;28;20460;-73
2022/05/10 13:35:33;;;;;;;6.20;4.60;;;;;;;;;;5073058;28;20836;-73
2022/05/10 13:38:02;;;;;;;4.83;3.70;;;;;;;;;;5073513;28;20452;-73
2022/05/10 13:40:30;;;;;;;9.57;4.00;;;;;;;;;;5073806;28;20471;-74
2022/05/10 13:42:59;;;;;;;6.03;4.47;;;;;;;;;;5073379;28;20487;-74
2022/05/10 13:45:28;;;;;;;4.63;4.20;;;;;;;;;;5073327;28;20466;-74
2022/05/10 13:47:59;;;;;;;4.77;4.33;;;;;;;;;;5073564;28;20448;-74
2022/05/10 13:50:27;;;;;;;4.73;3.33;;;;;;;;;;5073450;28;20822;-74
2022/05/10 13:52:57;;;;;;;4.43;4.03;;;;;;;;;;5073393;28;20833;-74
2022/05/10 13:55:25;;;;;;;3.70;3.40;;;;;;;;;;5073169;28;20452;-74
2022/05/10 13:57:54;;;;;;;4.80;4.13;;;;;;;;;;5073266;28;20503;-74
2022/05/10 14:00:32;;;;;;;5.40;3.77;;;;;;;;;;5073238;28;20475;-74
2022/05/10 14:02:59;;;;;;;3.50;3.20;;;;;;;;;;5073219;28;20455;-74
2022/05/10 14:05:29;;;;;;;4.30;3.30;;;;;;;;;;5072760;28;20452;-74
2022/05/10 14:07:59;;;;;;;3.23;2.67;;;;;;;;;;5072897;28;20459;-74
2022/05/10 14:10:29;;;;;;;5.63;3.60;;;;;;;;;;5072651;28;21011;-73
2022/05/10 14:12:59;;;;;;;3.87;3.30;;;;;;;;;;5073107;28;20458;-73
2022/05/10 14:15:27;;;;;;;5.70;3.07;;;;;;;;;;5072673;28;20823;-73
2022/05/10 14:17:56;;;;;;;3.30;2.63;;;;;;;;;;5073111;28;20494;-74
2022/05/10 14:20:25;;;;;;;7.43;3.13;;;;;;;;;;5072939;28;20464;-74
2022/05/10 14:22:54;;;;;;;4.87;4.47;;;;;;;;;;5072690;28;20858;-74
2022/05/10 14:25:24;;;;;;;5.03;3.30;;;;;;;;;;5073042;28;20448;-74
2022/05/10 14:27:58;;;;;;;10.23;3.30;;;;;;;;;;5072955;28;20941;-74
2022/05/10 14:30:27;;;;;;;5.27;3.53;;;;;;;;;;5072798;28;20494;-74
2022/05/10 14:32:54;;;;;;;4.10;3.70;;;;;;;;;;5072788;28;20871;-74
2022/05/10 14:35:26;;;;;;;6.37;3.70;;;;;;;;;;5072519;28;20475;-73
2022/05/10 14:37:54;;;;;;;2.70;2.47;;;;;;;;;;5073089;28;20463;-73
2022/05/10 14:40:28;;;;;;;5.37;3.00;;;;;;;;;;5072733;28;20483;-73
2022/05/10 14:42:58;;;;;;;3.40;3.00;;;;;;;;;;5072935;28;20459;-73
2022/05/10 14:45:37;;;;;;;6.80;3.57;;;;;;;;;;5073936;28;20462;-73
2022/05/10 14:48:19;;;;;;;4.30;3.10;;;;;;;;;;5076756;28;20847;-73
2022/05/10 14:50:51;;;;;;;4.73;3.30;;;;;;;;;;5076548;28;20491;-73
2022/05/10 14:53:20;;;;;;;4.73;3.80;;;;;;;;;;5076867;28;20513;-73
2022/05/10 14:55:50;;;;;;;4.50;4.10;;;;;;;;;;5076479;28;20929;-73
2022/05/10 14:58:23;;;;;;;3.30;2.90;;;;;;;;;;5076564;28;20458;-73
2022/05/10 15:01:00;;;;;;;10.23;3.30;;;;;;;;;;5076811;28;20483;-74
2022/05/10 15:03:27;;;;;;;3.80;3.50;;;;;;;;;;5076558;28;20447;-74
2022/05/10 15:05:55;;;;;;;5.33;4.00;;;;;;;;;;5076765;28;20466;-74
2022/05/10 15:08:23;;;;;;;3.50;3.20;;;;;;;;;;5076598;28;20458;-74